Date,TemperatureHighF,TemperatureAvgF,TemperatureLowF,DewpointHighF,DewpointAvgF,DewpointLowF,HumidityHigh,HumidityAvg,HumidityLow,PressureMaxIn,PressureMinIn,WindSpeedMaxMPH,WindSpeedAvgMPH,GustSpeedMaxMPH,PrecipitationSumIn
2013-8-1,78.9,66.6,60.8,68.2,62.9,59.9,97,89,61,29.93,29.83,2,0,9,0.01
2013-8-2,74.8,65.6,59.0,67.0,62.2,56.7,96,89,75,29.97,29.86,1,0,5,0.00
2013-8-3,79.3,67.1,61.7,65.3,60.6,56.4,96,81,55,29.97,29.89,2,0,8,0.00
2013-8-4,78.9,66.6,60.2,66.1,60.6,52.6,97,82,57,29.97,29.88,9,1,15,0.00
2013-8-5,71.2,64.8,59.0,65.7,60.7,52.1,96,87,75,29.98,29.91,2,0,7,0.00
2013-8-6,75.6,65.6,60.6,69.4,63.5,59.5,97,93,78,29.96,29.87,1,0,7,1.28
2013-8-7,65.6,63.3,61.5,64.7,62.4,60.6,97,97,97,29.99,29.93,2,0,7,1.96
2013-8-8,70.0,65.1,62.9,67.8,64.2,62.0,97,97,90,30.00,29.95,1,0,7,0.16
2013-8-9,72.6,66.9,63.5,70.0,65.4,62.7,98,95,83,30.03,29.96,1,0,7,0.09
2013-8-10,76.7,67.7,64.1,71.2,65.6,62.8,97,93,75,30.05,29.99,1,0,7,0.43
2013-8-11,76.1,67.3,63.7,69.2,64.6,61.8,97,91,74,30.07,30.00,4,0,10,0.04
2013-8-12,81.3,68.3,63.1,69.8,64.5,62.0,97,89,61,30.03,29.90,3,0,8,0.01
2013-8-13,76.0,65.7,60.6,68.4,62.8,59.0,97,91,70,29.90,29.77,5,0,9,0.15
2013-8-14,70.4,61.2,57.2,65.0,59.0,54.6,97,92,76,29.99,29.81,2,0,8,0.00
2013-8-15,59.6,55.6,51.8,56.2,53.7,50.7,97,94,85,30.08,29.97,1,0,5,0.00
2013-8-16,65.4,55.9,51.1,59.0,53.2,50.0,97,91,74,30.10,30.03,6,0,6,0.00
2013-8-17,59.0,55.6,51.5,57.0,53.7,47.8,97,94,83,30.13,30.06,1,0,6,0.23
2013-8-18,66.4,59.9,56.6,64.0,58.8,55.8,97,96,91,30.17,30.08,3,0,6,0.19
2013-8-19,63.6,60.6,58.1,63.0,59.7,57.0,98,97,97,30.14,30.03,1,0,4,1.75
2013-8-20,69.7,62.7,57.7,66.0,61.4,56.9,98,96,85,30.14,30.05,1,0,5,0.00
2013-8-21,65.9,61.8,59.9,64.3,60.8,59.0,98,97,86,30.18,30.09,1,0,10,0.44
2013-8-22,76.7,65.5,60.3,68.6,62.7,59.6,98,91,66,30.12,29.99,1,0,7,0.00
2013-8-23,76.8,65.1,59.0,68.0,61.7,57.4,97,90,71,30.02,29.92,1,0,6,0.04
2013-8-24,73.1,62.6,55.9,64.7,59.3,53.6,97,90,69,30.23,30.00,2,0,5,0.00
2013-8-25,70.3,59.3,52.7,61.8,55.2,50.0,96,87,72,30.32,30.22,1,0,5,0.00
2013-8-26,75.1,60.8,51.7,64.0,56.8,50.6,97,87,59,30.28,30.10,2,0,6,0.00
2013-8-27,79.1,64.5,55.2,66.0,59.7,53.2,97,85,57,30.12,29.98,4,0,8,0.00
2013-8-28,78.7,67.3,59.6,70.0,63.1,58.0,96,87,63,30.01,29.89,2,0,9,0.00
2013-8-29,80.2,69.3,62.2,70.6,64.8,60.6,96,86,66,29.91,29.85,4,1,11,0.00
2013-8-30,65.3,64.5,64.0,64.1,63.4,62.0,97,96,92,29.94,29.89,0,0,5,0.00
2013-8-31,80.0,67.1,61.6,69.8,64.2,60.7,97,91,61,29.91,29.82,1,0,6,0.02